createdAt,value
2023-03-01T00:01:08.644Z,2.90
2023-03-01T00:03:36.022Z,2.80
2023-03-01T00:06:04.121Z,2.90
2023-03-01T00:08:34.197Z,2.90
2023-03-01T00:11:10.876Z,2.90
2023-03-01T00:13:37.705Z,2.70
2023-03-01T00:16:07.278Z,2.80
2023-03-01T00:18:34.151Z,2.70
2023-03-01T00:21:01.078Z,2.60
2023-03-01T00:23:28.720Z,2.70
2023-03-01T00:25:55.999Z,2.60
2023-03-01T00:28:23.003Z,2.60
2023-03-01T00:30:49.883Z,2.70
2023-03-01T00:33:16.924Z,2.60
2023-03-01T00:35:43.721Z,2.80
2023-03-01T00:38:10.492Z,2.60
2023-03-01T00:40:37.916Z,2.50
2023-03-01T00:43:05.348Z,2.50
2023-03-01T00:45:33.819Z,2.40
2023-03-01T00:48:00.748Z,2.30
2023-03-01T00:50:27.638Z,2.30
2023-03-01T00:52:57.242Z,2.40
2023-03-01T00:55:24.168Z,2.50
2023-03-01T00:57:51.227Z,2.40
2023-03-01T01:00:18.869Z,2.30
2023-03-01T01:02:46.158Z,2.20
2023-03-01T01:05:14.679Z,2.20
2023-03-01T01:07:42.806Z,2.10
2023-03-01T01:10:13.864Z,2.10
2023-03-01T01:12:40.609Z,2.10
2023-03-01T01:15:07.942Z,2.30
2023-03-01T01:17:34.721Z,2.20
2023-03-01T01:20:01.459Z,2.20
2023-03-01T01:22:28.432Z,2.10
2023-03-01T01:24:55.195Z,2.20
2023-03-01T01:27:21.976Z,2.10
2023-03-01T01:29:48.727Z,2.20
2023-03-01T01:32:15.467Z,2.10
2023-03-01T01:34:42.340Z,2.00
2023-03-01T01:37:09.055Z,2.10
2023-03-01T01:39:36.516Z,2.00
2023-03-01T01:42:03.683Z,2.00
2023-03-01T01:44:31.582Z,2.10
2023-03-01T01:47:13.711Z,2.00
2023-03-01T01:49:52.006Z,2.00
2023-03-01T01:52:21.801Z,2.10
2023-03-01T01:55:07.975Z,2.00
2023-03-01T01:57:48.183Z,1.90
2023-03-01T02:00:20.093Z,1.90
2023-03-01T02:02:50.194Z,2.00
2023-03-01T02:05:23.808Z,2.00
2023-03-01T02:07:51.598Z,2.10
2023-03-01T02:10:18.963Z,1.90
2023-03-01T02:12:47.273Z,2.00
2023-03-01T02:15:14.467Z,2.00
2023-03-01T02:17:42.121Z,1.90
2023-03-01T02:20:42.324Z,1.90
2023-03-01T02:23:09.941Z,2.00
2023-03-01T02:25:51.769Z,2.10
2023-03-01T02:28:18.917Z,2.10
2023-03-01T02:31:07.377Z,2.00
2023-03-01T02:33:37.340Z,1.90
2023-03-01T02:36:16.865Z,1.90
2023-03-01T02:38:44.958Z,1.80
2023-03-01T02:41:16.048Z,1.80
2023-03-01T02:43:43.459Z,1.80
2023-03-01T02:46:21.016Z,1.80
2023-03-01T02:48:52.631Z,1.80
2023-03-01T02:51:38.463Z,1.70
2023-03-01T02:54:08.458Z,1.70
2023-03-01T02:56:36.406Z,1.70
2023-03-01T02:59:04.550Z,1.70
2023-03-01T03:01:37.496Z,1.50
2023-03-01T03:04:11.117Z,1.60
2023-03-01T03:06:38.360Z,1.60
2023-03-01T03:09:06.297Z,1.50
2023-03-01T03:11:33.541Z,1.50
2023-03-01T03:14:00.597Z,1.50
2023-03-01T03:16:27.750Z,1.40
2023-03-01T03:18:54.626Z,1.40
2023-03-01T03:21:21.754Z,1.40
2023-03-01T03:23:48.782Z,1.40
2023-03-01T03:26:16.146Z,1.50
2023-03-01T03:28:43.326Z,1.40
2023-03-01T03:31:10.490Z,1.60
2023-03-01T03:33:37.999Z,1.40
2023-03-01T03:36:05.983Z,1.40
2023-03-01T03:38:33.300Z,1.20
2023-03-01T03:41:06.248Z,1.20
2023-03-01T03:43:35.291Z,1.20
2023-03-01T03:46:06.911Z,1.20
2023-03-01T03:48:45.261Z,1.20
2023-03-01T03:51:17.814Z,1.10
2023-03-01T03:53:45.938Z,1.10
2023-03-01T03:56:13.641Z,1.00
2023-03-01T03:58:40.447Z,1.10
2023-03-01T04:01:07.410Z,1.00
2023-03-01T04:03:36.057Z,1.00
2023-03-01T04:06:03.726Z,0.90
2023-03-01T04:08:30.677Z,1.00
2023-03-01T04:11:25.464Z,0.90
2023-03-01T04:13:53.967Z,0.80
2023-03-01T04:16:21.062Z,0.80
2023-03-01T04:18:48.067Z,0.90
2023-03-01T04:21:15.094Z,0.90
2023-03-01T04:23:42.118Z,0.90
2023-03-01T04:26:09.297Z,0.90
2023-03-01T04:28:39.937Z,0.90
2023-03-01T04:31:16.562Z,0.90
2023-03-01T04:33:54.677Z,0.80
2023-03-01T04:36:28.028Z,0.90
2023-03-01T04:38:55.923Z,0.90
2023-03-01T04:41:24.747Z,0.90
2023-03-01T04:43:51.760Z,0.90
2023-03-01T04:46:21.107Z,1.00
2023-03-01T04:48:48.466Z,1.00
2023-03-01T04:51:15.705Z,1.00
2023-03-01T04:53:43.793Z,1.00
2023-03-01T04:56:11.196Z,1.10
2023-03-01T04:58:38.196Z,1.10
2023-03-01T05:01:16.074Z,1.10
2023-03-01T05:03:48.328Z,1.10
2023-03-01T05:06:15.809Z,1.10
2023-03-01T05:08:43.009Z,1.00
2023-03-01T05:11:10.443Z,0.90
2023-03-01T05:13:38.985Z,0.90
2023-03-01T05:16:06.840Z,0.90
2023-03-01T05:18:34.802Z,0.90
2023-03-01T05:21:10.185Z,1.00
2023-03-01T05:23:37.329Z,1.10
2023-03-01T05:26:09.466Z,1.00
2023-03-01T05:28:38.927Z,0.90
2023-03-01T05:31:10.594Z,0.90
2023-03-01T05:33:41.525Z,0.90
2023-03-01T05:36:10.653Z,0.80
2023-03-01T05:38:37.835Z,0.80
2023-03-01T05:41:04.744Z,0.80
2023-03-01T05:43:35.208Z,0.80
2023-03-01T05:46:02.518Z,0.70
2023-03-01T05:48:30.408Z,0.70
2023-03-01T05:51:01.328Z,0.70
2023-03-01T05:53:28.255Z,0.70
2023-03-01T05:55:55.046Z,0.70
2023-03-01T05:58:22.711Z,0.70
2023-03-01T06:00:50.294Z,0.70
2023-03-01T06:03:18.644Z,0.70
2023-03-01T06:05:45.928Z,0.70
2023-03-01T06:08:13.071Z,0.60
2023-03-01T06:10:40.509Z,0.70
2023-03-01T06:13:07.413Z,0.60
2023-03-01T06:15:34.647Z,0.60
2023-03-01T06:18:01.477Z,0.60
2023-03-01T06:20:29.662Z,0.60
2023-03-01T06:22:56.838Z,0.70
2023-03-01T06:25:25.926Z,0.70
2023-03-01T06:27:55.791Z,0.70
2023-03-01T06:30:24.611Z,0.80
2023-03-01T06:32:52.056Z,0.60
2023-03-01T06:35:19.770Z,0.60
2023-03-01T06:37:48.825Z,0.60
2023-03-01T06:40:16.376Z,0.50
2023-03-01T06:42:45.162Z,0.60
2023-03-01T06:45:12.639Z,0.50
2023-03-01T06:47:39.848Z,0.50
2023-03-01T06:50:07.033Z,0.50
2023-03-01T06:52:34.050Z,0.60
2023-03-01T06:55:00.844Z,0.60
2023-03-01T06:57:28.163Z,0.70
2023-03-01T06:59:55.143Z,0.80
2023-03-01T07:02:21.938Z,0.90
2023-03-01T07:04:53.193Z,1.10
2023-03-01T07:07:20.060Z,1.10
2023-03-01T07:09:47.376Z,1.20
2023-03-01T07:12:14.260Z,1.20
2023-03-01T07:14:41.125Z,1.20
2023-03-01T07:17:08.555Z,1.30
2023-03-01T07:19:35.389Z,1.40
2023-03-01T07:22:02.221Z,1.40
2023-03-01T07:24:29.362Z,1.50
2023-03-01T07:26:56.452Z,1.50
2023-03-01T07:29:23.224Z,1.80
2023-03-01T07:31:50.094Z,1.90
2023-03-01T07:34:16.899Z,2.10
2023-03-01T07:36:45.745Z,2.40
2023-03-01T07:39:12.604Z,2.60
2023-03-01T07:41:39.769Z,2.90
2023-03-01T07:44:06.732Z,3.20
2023-03-01T07:46:33.892Z,3.30
2023-03-01T07:49:00.823Z,3.30
2023-03-01T07:51:27.677Z,3.40
2023-03-01T07:53:54.695Z,3.60
2023-03-01T07:56:22.988Z,3.60
2023-03-01T07:58:51.134Z,3.70
2023-03-01T08:01:20.645Z,4.00
2023-03-01T08:03:48.032Z,4.10
2023-03-01T08:06:17.641Z,4.30
2023-03-01T08:08:44.775Z,4.50
2023-03-01T08:11:13.869Z,4.50
2023-03-01T08:13:41.170Z,4.70
2023-03-01T08:16:14.073Z,5.10
2023-03-01T08:18:41.142Z,5.30
2023-03-01T08:21:11.054Z,5.50
2023-03-01T08:23:38.517Z,6.00
2023-03-01T08:26:17.920Z,6.10
2023-03-01T08:28:45.235Z,6.00
2023-03-01T08:31:31.641Z,6.50
2023-03-01T08:34:02.432Z,6.80
2023-03-01T08:36:32.190Z,7.00
2023-03-01T08:38:59.902Z,7.40
2023-03-01T08:41:26.977Z,7.30
2023-03-01T08:43:59.544Z,6.90
2023-03-01T08:46:28.451Z,7.10
2023-03-01T08:48:55.319Z,7.40
2023-03-01T08:51:23.092Z,7.70
2023-03-01T08:53:50.305Z,7.60
2023-03-01T08:56:19.263Z,7.50
2023-03-01T08:58:47.657Z,7.20
2023-03-01T09:01:17.925Z,7.70
2023-03-01T09:03:45.918Z,7.40
2023-03-01T09:06:13.656Z,8.20
2023-03-01T09:08:45.393Z,8.20
2023-03-01T09:11:14.897Z,8.00
2023-03-01T09:13:44.271Z,8.70
2023-03-01T09:16:13.511Z,8.80
2023-03-01T09:18:41.167Z,8.70
2023-03-01T09:21:10.564Z,8.80
2023-03-01T09:23:39.996Z,9.50
2023-03-01T09:26:12.038Z,9.00
2023-03-01T09:28:39.893Z,9.70
2023-03-01T09:31:06.819Z,9.30
2023-03-01T09:33:34.881Z,8.60
2023-03-01T09:36:08.565Z,9.00
2023-03-01T09:38:35.347Z,9.90
2023-03-01T09:41:02.634Z,10.40
2023-03-01T09:43:45.371Z,10.30
2023-03-01T09:46:18.264Z,9.80
2023-03-01T09:48:51.498Z,9.30
2023-03-01T09:51:23.433Z,9.20
2023-03-01T09:53:50.537Z,9.30
2023-03-01T09:56:35.249Z,9.10
2023-03-01T09:59:22.234Z,8.80
2023-03-01T10:02:22.730Z,8.70
2023-03-01T10:04:56.027Z,9.00
2023-03-01T10:07:28.658Z,9.20
2023-03-01T10:09:55.849Z,9.10
2023-03-01T10:12:28.850Z,8.80
2023-03-01T10:15:17.889Z,9.30
2023-03-01T10:17:59.179Z,9.60
2023-03-01T10:20:31.035Z,9.90
2023-03-01T10:22:57.956Z,10.10
2023-03-01T10:26:01.884Z,10.50
2023-03-01T10:29:01.476Z,10.40
2023-03-01T10:31:51.941Z,9.60
2023-03-01T10:34:32.744Z,9.80
2023-03-01T10:37:13.838Z,9.50
2023-03-01T10:39:57.563Z,9.40
2023-03-01T10:42:34.133Z,9.60
2023-03-01T10:45:21.951Z,9.50
2023-03-01T10:48:04.983Z,9.30
2023-03-01T10:50:32.879Z,9.30
2023-03-01T10:53:02.368Z,9.50
2023-03-01T10:55:39.559Z,9.80
2023-03-01T10:58:23.334Z,9.80
2023-03-01T11:00:53.852Z,9.40
2023-03-01T11:03:26.120Z,9.10
2023-03-01T11:06:14.005Z,9.40
2023-03-01T11:08:44.695Z,9.60
2023-03-01T11:11:34.332Z,9.40
2023-03-01T11:14:27.568Z,9.20
2023-03-01T11:17:39.013Z,9.30
2023-03-01T11:20:14.382Z,9.80
2023-03-01T11:22:51.510Z,9.60
2023-03-01T11:25:20.252Z,10.10
2023-03-01T11:27:48.066Z,10.00
2023-03-01T11:30:28.695Z,10.10
2023-03-01T11:33:11.369Z,10.20
2023-03-01T11:35:44.690Z,10.30
2023-03-01T11:38:35.169Z,10.20
2023-03-01T11:41:19.306Z,10.70
2023-03-01T11:44:10.443Z,10.40
2023-03-01T11:46:59.628Z,10.20
2023-03-01T11:49:45.905Z,10.70
2023-03-01T11:53:01.276Z,10.60
2023-03-01T11:55:49.090Z,10.80
2023-03-01T11:58:30.938Z,11.20
2023-03-01T12:01:16.976Z,11.50
2023-03-01T12:04:02.385Z,11.00
2023-03-01T12:06:46.055Z,10.20
2023-03-01T12:09:18.840Z,10.50
2023-03-01T12:11:57.503Z,10.80
2023-03-01T12:14:42.826Z,10.70
2023-03-01T12:17:28.256Z,11.70
2023-03-01T12:20:31.963Z,12.40
2023-03-01T12:23:24.602Z,12.50
2023-03-01T12:26:06.404Z,12.80
2023-03-01T12:28:57.436Z,12.50
2023-03-01T12:31:45.546Z,11.60
2023-03-01T12:34:40.708Z,12.10
2023-03-01T12:37:16.561Z,11.70
2023-03-01T12:40:05.115Z,12.10
2023-03-01T12:42:53.011Z,12.10
2023-03-01T12:45:22.907Z,11.70
2023-03-01T12:48:05.416Z,11.40
2023-03-01T12:50:44.114Z,11.80
2023-03-01T12:53:29.471Z,12.10
2023-03-01T12:56:01.911Z,11.90
2023-03-01T12:59:24.984Z,12.30
2023-03-01T13:02:10.644Z,11.30
2023-03-01T13:04:58.492Z,11.70
2023-03-01T13:07:44.608Z,11.10
2023-03-01T13:10:21.450Z,10.80
2023-03-01T13:13:02.218Z,10.60
2023-03-01T13:15:37.194Z,11.50
2023-03-01T13:18:13.019Z,11.60
2023-03-01T13:20:43.169Z,11.50
2023-03-01T13:23:32.845Z,12.20
2023-03-01T13:26:14.542Z,11.50
2023-03-01T13:28:51.740Z,11.80
2023-03-01T13:31:21.521Z,12.10
2023-03-01T13:33:52.586Z,12.20
2023-03-01T13:36:33.507Z,12.40
2023-03-01T13:39:06.183Z,11.60
2023-03-01T13:41:45.009Z,11.80
2023-03-01T13:44:27.382Z,11.40
2023-03-01T13:47:06.171Z,10.90
2023-03-01T13:49:46.411Z,11.00
2023-03-01T13:52:40.428Z,11.10
2023-03-01T13:55:37.525Z,11.30
2023-03-01T13:58:15.619Z,11.30
2023-03-01T14:00:42.668Z,11.50
2023-03-01T14:03:19.511Z,11.60
2023-03-01T14:06:12.569Z,11.10
2023-03-01T14:08:43.586Z,11.10
2023-03-01T14:11:28.501Z,10.90
2023-03-01T14:14:01.074Z,10.90
2023-03-01T14:17:00.161Z,11.10
2023-03-01T14:19:34.081Z,11.00
2023-03-01T14:22:05.797Z,11.50
2023-03-01T14:24:38.040Z,11.60
2023-03-01T14:27:04.810Z,11.10
2023-03-01T14:29:37.696Z,10.50
2023-03-01T14:32:27.386Z,10.90
2023-03-01T14:34:54.577Z,11.50
2023-03-01T14:37:28.239Z,10.90
2023-03-01T14:39:56.293Z,11.70
2023-03-01T14:42:27.040Z,11.40
2023-03-01T14:44:56.326Z,11.30
2023-03-01T14:47:39.339Z,11.50
2023-03-01T14:50:10.616Z,11.30
2023-03-01T14:52:43.305Z,10.80
2023-03-01T14:55:32.978Z,11.20
2023-03-01T14:58:01.929Z,11.10
2023-03-01T15:00:32.483Z,11.00
2023-03-01T15:03:10.830Z,11.00
2023-03-01T15:05:38.322Z,11.20
2023-03-01T15:08:05.628Z,11.00
2023-03-01T15:10:35.720Z,11.00
2023-03-01T15:13:22.699Z,11.30
2023-03-01T15:15:52.278Z,11.20
2023-03-01T15:18:21.491Z,11.40
2023-03-01T15:20:49.784Z,11.20
2023-03-01T15:23:24.995Z,11.30
2023-03-01T15:26:00.254Z,10.80
2023-03-01T15:28:34.718Z,10.40
2023-03-01T15:31:20.469Z,10.00
2023-03-01T15:33:48.450Z,9.90
2023-03-01T15:36:43.519Z,9.50
2023-03-01T15:39:40.588Z,10.00
2023-03-01T15:42:09.231Z,10.40
2023-03-01T15:44:43.706Z,9.70
2023-03-01T15:47:31.602Z,9.50
2023-03-01T15:50:00.489Z,9.60
2023-03-01T15:52:37.740Z,9.40
2023-03-01T15:55:22.721Z,9.60
2023-03-01T15:57:51.180Z,9.50
2023-03-01T16:00:18.760Z,9.10
2023-03-01T16:02:46.366Z,9.10
2023-03-01T16:05:40.109Z,9.20
2023-03-01T16:08:07.577Z,9.10
2023-03-01T16:10:36.287Z,9.00
2023-03-01T16:13:03.352Z,9.00
2023-03-01T16:15:33.518Z,8.70
2023-03-01T16:18:00.427Z,8.70
2023-03-01T16:20:31.476Z,8.80
2023-03-01T16:23:03.418Z,8.60
2023-03-01T16:25:31.276Z,8.50
2023-03-01T16:27:59.497Z,8.50
2023-03-01T16:30:26.751Z,8.30
2023-03-01T16:32:54.087Z,8.40
2023-03-01T16:35:23.024Z,8.30
2023-03-01T16:37:50.126Z,8.20
2023-03-01T16:40:28.423Z,8.40
2023-03-01T16:43:00.477Z,8.40
2023-03-01T16:45:29.013Z,8.30
2023-03-01T16:47:56.371Z,8.00
2023-03-01T16:50:23.617Z,8.00
2023-03-01T16:52:50.698Z,8.00
2023-03-01T16:55:17.942Z,7.90
2023-03-01T16:57:44.871Z,7.70
2023-03-01T17:00:14.181Z,7.70
2023-03-01T17:02:42.674Z,7.70
2023-03-01T17:05:13.226Z,7.60
2023-03-01T17:07:40.627Z,7.60
2023-03-01T17:10:11.920Z,7.60
2023-03-01T17:12:38.754Z,7.50
2023-03-01T17:15:06.717Z,7.50
2023-03-01T17:17:33.542Z,7.30
2023-03-01T17:20:00.956Z,7.40
2023-03-01T17:22:28.530Z,7.40
2023-03-01T17:24:55.325Z,7.30
2023-03-01T17:27:23.412Z,7.30
2023-03-01T17:29:51.336Z,7.20
2023-03-01T17:32:18.292Z,7.30
2023-03-01T17:34:46.353Z,7.40
2023-03-01T17:37:13.130Z,7.20
2023-03-01T17:39:39.876Z,7.20
2023-03-01T17:42:07.155Z,7.30
2023-03-01T17:44:34.709Z,7.30
2023-03-01T17:47:03.890Z,7.20
2023-03-01T17:49:31.455Z,7.10
2023-03-01T17:51:59.097Z,7.20
2023-03-01T17:54:25.889Z,7.20
2023-03-01T17:56:53.326Z,7.20
2023-03-01T17:59:20.224Z,7.10
2023-03-01T18:01:47.327Z,7.00
2023-03-01T18:04:14.256Z,6.90
2023-03-01T18:06:41.070Z,7.00
2023-03-01T18:09:08.686Z,7.00
2023-03-01T18:11:36.766Z,6.80
2023-03-01T18:14:04.673Z,6.90
2023-03-01T18:16:32.402Z,6.90
2023-03-01T18:19:00.418Z,6.90
2023-03-01T18:21:28.830Z,6.80
2023-03-01T18:23:55.845Z,6.70
2023-03-01T18:26:24.930Z,6.60
2023-03-01T18:28:52.775Z,6.60
2023-03-01T18:31:22.682Z,6.50
2023-03-01T18:33:52.085Z,6.30
2023-03-01T18:36:25.370Z,6.40
2023-03-01T18:38:53.765Z,6.50
2023-03-01T18:41:20.530Z,6.40
2023-03-01T18:43:47.362Z,6.40
2023-03-01T18:46:14.494Z,6.30
2023-03-01T18:48:41.331Z,6.20
2023-03-01T18:51:13.850Z,6.10
2023-03-01T18:53:41.015Z,6.20
2023-03-01T18:56:09.139Z,6.10
2023-03-01T18:58:36.723Z,6.10
2023-03-01T19:01:07.901Z,6.00
2023-03-01T19:03:35.526Z,6.10
2023-03-01T19:06:02.385Z,6.10
2023-03-01T19:08:30.536Z,5.90
2023-03-01T19:10:59.195Z,5.90
2023-03-01T19:13:26.880Z,5.80
2023-03-01T19:16:09.945Z,5.70
2023-03-01T19:18:40.023Z,5.60
2023-03-01T19:21:09.302Z,5.70
2023-03-01T19:23:36.743Z,5.60
2023-03-01T19:26:08.983Z,5.60
2023-03-01T19:28:38.416Z,5.60
2023-03-01T19:31:12.413Z,5.60
2023-03-01T19:33:42.180Z,5.60
2023-03-01T19:36:11.153Z,5.50
2023-03-01T19:38:40.221Z,5.50
2023-03-01T19:41:09.586Z,5.50
2023-03-01T19:43:36.769Z,5.40
2023-03-01T19:46:04.310Z,5.30
2023-03-01T19:48:31.195Z,5.20
2023-03-01T19:50:58.613Z,5.20
2023-03-01T19:53:25.831Z,5.10
2023-03-01T19:56:01.048Z,5.10
2023-03-01T19:58:28.910Z,5.00
2023-03-01T20:00:59.014Z,5.00
2023-03-01T20:03:31.244Z,5.00
2023-03-01T20:05:58.549Z,4.90
2023-03-01T20:08:25.918Z,5.00
2023-03-01T20:10:52.677Z,4.70
2023-03-01T20:13:21.253Z,4.70
2023-03-01T20:15:48.372Z,4.80
2023-03-01T20:18:15.258Z,4.80
2023-03-01T20:20:42.183Z,4.90
2023-03-01T20:23:09.138Z,4.70
2023-03-01T20:25:36.018Z,4.60
2023-03-01T20:28:02.799Z,4.70
2023-03-01T20:30:29.599Z,4.60
2023-03-01T20:32:56.383Z,4.60
2023-03-01T20:35:23.519Z,4.50
2023-03-01T20:37:53.893Z,4.50
2023-03-01T20:40:21.466Z,4.30
2023-03-01T20:42:48.218Z,4.40
2023-03-01T20:45:15.015Z,4.40
2023-03-01T20:47:41.735Z,4.40
2023-03-01T20:50:09.019Z,4.40
2023-03-01T20:52:45.737Z,4.30
2023-03-01T20:55:14.165Z,4.30
2023-03-01T20:57:40.984Z,4.30
2023-03-01T21:00:08.641Z,4.30
2023-03-01T21:02:35.545Z,4.20
2023-03-01T21:05:02.348Z,4.30
2023-03-01T21:07:29.102Z,4.30
2023-03-01T21:09:55.944Z,4.20
2023-03-01T21:12:22.736Z,4.10
2023-03-01T21:14:49.506Z,4.10
2023-03-01T21:17:17.785Z,4.10
2023-03-01T21:19:45.477Z,4.00
2023-03-01T21:22:15.757Z,4.00
2023-03-01T21:24:43.098Z,4.00
2023-03-01T21:27:10.471Z,3.90
2023-03-01T21:29:39.789Z,3.80
2023-03-01T21:32:07.912Z,3.80
2023-03-01T21:34:35.379Z,3.80
2023-03-01T21:37:02.321Z,3.70
2023-03-01T21:39:30.051Z,3.70
2023-03-01T21:41:58.806Z,3.70
2023-03-01T21:44:27.816Z,3.70
2023-03-01T21:46:54.965Z,3.70
2023-03-01T21:49:22.609Z,3.80
2023-03-01T21:51:49.528Z,4.00
2023-03-01T21:54:17.673Z,3.80
2023-03-01T21:56:45.941Z,3.70
2023-03-01T21:59:21.906Z,3.70
2023-03-01T22:01:49.588Z,3.60
2023-03-01T22:04:17.280Z,3.70
2023-03-01T22:06:46.379Z,3.70
2023-03-01T22:09:19.511Z,3.60
2023-03-01T22:11:50.223Z,3.50
2023-03-01T22:14:20.920Z,3.40
2023-03-01T22:16:51.243Z,3.50
2023-03-01T22:19:18.457Z,3.50
2023-03-01T22:21:49.222Z,3.50
2023-03-01T22:24:18.061Z,3.50
2023-03-01T22:26:46.298Z,3.40
2023-03-01T22:29:22.160Z,3.30
2023-03-01T22:31:49.031Z,3.50
2023-03-01T22:34:17.077Z,3.40
2023-03-01T22:36:44.966Z,3.30
2023-03-01T22:39:14.186Z,3.30
2023-03-01T22:41:45.491Z,3.30
2023-03-01T22:44:18.389Z,3.30
2023-03-01T22:46:45.710Z,3.30
2023-03-01T22:49:13.229Z,3.20
2023-03-01T22:51:42.433Z,3.40
2023-03-01T22:54:10.455Z,3.40
2023-03-01T22:56:38.187Z,3.50
2023-03-01T22:59:09.822Z,3.50
2023-03-01T23:01:38.266Z,3.40
2023-03-01T23:04:05.202Z,3.30
2023-03-01T23:06:32.677Z,3.30
2023-03-01T23:09:01.903Z,3.40
2023-03-01T23:11:29.629Z,3.30
2023-03-01T23:13:58.374Z,3.20
2023-03-01T23:16:26.548Z,3.20
2023-03-01T23:18:55.961Z,3.30
2023-03-01T23:21:23.134Z,3.20
2023-03-01T23:23:50.480Z,3.10
2023-03-01T23:26:18.786Z,3.10
2023-03-01T23:28:45.687Z,3.00
2023-03-01T23:31:14.840Z,2.90
2023-03-01T23:33:43.526Z,3.00
2023-03-01T23:36:16.321Z,2.90
2023-03-01T23:38:43.190Z,2.90
2023-03-01T23:41:15.134Z,2.90
2023-03-01T23:43:50.170Z,2.90
2023-03-01T23:46:18.534Z,3.00
2023-03-01T23:48:46.444Z,2.90
2023-03-01T23:51:14.121Z,2.90
2023-03-01T23:53:54.008Z,2.90
2023-03-01T23:56:26.353Z,2.90
2023-03-01T23:58:58.756Z,2.80
